Time;durP1;ratioP1;P1;durP2;ratioP2;P2;SDS_P1;SDS_P2;PMS_P1;PMS_P2;Temp;Humidity;BMP_temperature;BMP_pressure;BME280_temperature;BME280_humidity;BME280_pressure;Samples;Min_cycle;Max_cycle;Signal;HPM_P1;HPM_P2
2022/03/29 00:01:58;;;;;;;66.57;7.22;;;3.50;99.90;;;;;;5055647;28;20070;-66
2022/03/29 00:04:24;;;;;;;63.83;7.03;;;3.50;99.90;;;;;;5055412;28;20447;-66
2022/03/29 00:06:51;;;;;;;74.82;9.63;;;3.30;99.90;;;;;;5055299;28;20033;-66
2022/03/29 00:09:17;;;;;;;54.03;6.85;;;3.20;99.90;;;;;;5055265;28;20035;-66
2022/03/29 00:11:42;;;;;;;67.13;9.07;;;3.20;99.90;;;;;;5055069;28;20029;-66
2022/03/29 00:14:08;;;;;;;73.25;7.95;;;3.20;99.90;;;;;;5055170;28;20021;-66
2022/03/29 00:16:34;;;;;;;53.80;8.50;;;3.30;99.90;;;;;;5055117;28;20025;-66
2022/03/29 00:19:00;;;;;;;58.40;6.82;;;3.20;99.90;;;;;;5055125;28;20044;-66
2022/03/29 00:21:26;;;;;;;66.38;8.02;;;3.20;99.90;;;;;;5055041;28;20477;-66
2022/03/29 00:23:52;;;;;;;55.67;7.18;;;3.20;99.90;;;;;;5054943;28;20108;-66
2022/03/29 00:26:18;;;;;;;71.10;9.02;;;3.20;99.90;;;;;;5054974;28;20025;-66
2022/03/29 00:28:44;;;;;;;66.82;7.82;;;3.10;99.90;;;;;;5054983;28;20544;-66
2022/03/29 00:31:11;;;;;;;80.60;8.23;;;3.10;99.90;;;;;;5054898;28;20104;-66
2022/03/29 00:33:37;;;;;;;61.25;8.02;;;3.00;99.90;;;;;;5054982;28;20161;-66
2022/03/29 00:36:03;;;;;;;71.28;7.18;;;3.00;99.90;;;;;;5055030;28;20496;-66
2022/03/29 00:38:28;;;;;;;58.53;6.80;;;3.00;99.90;;;;;;5054755;28;20028;-66
2022/03/29 00:40:54;;;;;;;58.40;6.70;;;3.00;99.90;;;;;;5054774;28;20074;-66
2022/03/29 00:43:20;;;;;;;72.72;8.90;;;3.10;99.90;;;;;;5054364;28;20029;-66
2022/03/29 00:45:46;;;;;;;43.35;6.00;;;3.00;99.90;;;;;;5054489;28;20036;-66
2022/03/29 00:48:13;;;;;;;51.28;6.03;;;3.00;99.90;;;;;;5054776;28;20029;-66
2022/03/29 00:50:40;;;;;;;45.78;5.03;;;3.10;99.90;;;;;;5054428;28;20433;-66
2022/03/29 00:53:06;;;;;;;64.07;7.25;;;3.00;99.90;;;;;;5054336;28;20033;-66
2022/03/29 00:55:32;;;;;;;51.08;6.63;;;3.00;99.90;;;;;;5054306;28;20025;-66
2022/03/29 00:58:01;;;;;;;37.33;5.93;;;3.00;99.90;;;;;;5054266;28;20482;-66
2022/03/29 01:00:27;;;;;;;51.00;5.72;;;2.90;99.90;;;;;;5054322;28;20079;-66
2022/03/29 01:02:53;;;;;;;48.55;5.38;;;2.90;99.90;;;;;;5054418;28;20029;-66
2022/03/29 01:05:18;;;;;;;40.45;4.95;;;2.80;99.90;;;;;;5054105;28;20435;-66
2022/03/29 01:07:44;;;;;;;34.67;5.25;;;2.70;99.90;;;;;;5054247;28;20354;-66
2022/03/29 01:10:10;;;;;;;39.92;5.70;;;2.80;99.90;;;;;;5054336;28;20032;-66
2022/03/29 01:12:37;;;;;;;43.90;5.60;;;2.80;99.90;;;;;;5053958;28;20029;-66
2022/03/29 01:15:06;;;;;;;47.85;6.40;;;2.70;99.90;;;;;;5053940;28;20040;-66
2022/03/29 01:17:39;;;;;;;53.85;6.07;;;2.80;99.90;;;;;;5054207;28;20048;-66
2022/03/29 01:20:12;;;;;;;49.10;8.32;;;2.70;99.90;;;;;;5054522;28;20053;-66
2022/03/29 01:22:42;;;;;;;28.02;4.70;;;2.70;99.90;;;;;;5053875;28;20029;-66
2022/03/29 01:25:09;;;;;;;43.42;6.05;;;2.70;99.90;;;;;;5054026;28;20025;-66
2022/03/29 01:27:35;;;;;;;45.88;5.82;;;2.70;99.90;;;;;;5054052;28;20048;-66
2022/03/29 01:30:02;;;;;;;38.28;4.90;;;2.70;99.90;;;;;;5054076;28;20045;-66
2022/03/29 01:32:29;;;;;;;29.02;4.30;;;2.60;99.90;;;;;;5053947;28;20164;-66
2022/03/29 01:34:56;;;;;;;29.25;4.18;;;2.50;99.90;;;;;;5053803;28;20025;-66
2022/03/29 01:37:22;;;;;;;38.55;5.55;;;2.40;99.90;;;;;;5053628;28;20017;-65
2022/03/29 01:39:48;;;;;;;44.05;6.28;;;2.40;99.90;;;;;;5053612;28;20031;-66
2022/03/29 01:42:13;;;;;;;43.65;3.85;;;2.50;99.90;;;;;;5035708;28;20031;-66
2022/03/29 01:44:39;;;;;;;36.85;5.53;;;2.50;99.90;;;;;;5053286;28;20069;-65
2022/03/29 01:47:06;;;;;;;49.17;5.45;;;2.60;99.90;;;;;;5053450;28;20033;-65
2022/03/29 01:49:32;;;;;;;43.80;5.60;;;2.50;99.90;;;;;;5053711;28;20075;-66
2022/03/29 01:51:58;;;;;;;44.22;4.78;;;2.60;99.90;;;;;;5053804;28;20554;-66
2022/03/29 01:54:24;;;;;;;37.78;5.03;;;2.60;99.90;;;;;;5053368;28;20075;-66
2022/03/29 01:56:50;;;;;;;49.15;4.93;;;2.60;99.90;;;;;;5053654;28;20032;-66
2022/03/29 01:59:16;;;;;;;38.28;5.13;;;2.60;99.90;;;;;;5053373;28;20472;-66
2022/03/29 02:01:44;;;;;;;46.40;5.10;;;2.40;99.90;;;;;;5053309;28;20384;-66
2022/03/29 02:04:10;;;;;;;32.55;4.25;;;2.30;99.90;;;;;;5053518;28;20017;-66
2022/03/29 02:06:36;;;;;;;32.38;5.13;;;2.10;99.90;;;;;;5053595;28;20029;-66
2022/03/29 02:09:03;;;;;;;35.42;7.05;;;2.00;99.90;;;;;;5053515;28;20021;-66
2022/03/29 02:11:29;;;;;;;53.45;6.03;;;2.00;99.90;;;;;;5054501;28;20060;-66
2022/03/29 02:13:55;;;;;;;33.55;4.28;;;2.00;99.90;;;;;;5057488;28;20056;-66
2022/03/29 02:16:21;;;;;;;45.13;4.90;;;2.10;99.90;;;;;;5057381;28;20104;-66
2022/03/29 02:18:47;;;;;;;51.65;6.63;;;2.10;99.90;;;;;;5057947;28;20036;-66
2022/03/29 02:21:19;;;;;;;28.35;4.38;;;2.10;99.90;;;;;;5057842;28;20021;-66
2022/03/29 02:23:45;;;;;;;32.38;4.10;;;2.10;99.90;;;;;;5057193;28;20025;-66
2022/03/29 02:26:11;;;;;;;37.45;4.72;;;2.00;99.90;;;;;;5057235;28;20021;-66
2022/03/29 02:28:37;;;;;;;40.78;4.35;;;2.00;99.90;;;;;;5057072;28;20071;-66
2022/03/29 02:31:03;;;;;;;42.55;3.95;;;1.90;99.90;;;;;;5057070;28;20029;-66
2022/03/29 02:33:28;;;;;;;41.75;4.72;;;1.90;99.90;;;;;;5056937;28;20425;-66
2022/03/29 02:35:54;;;;;;;43.85;5.60;;;1.90;99.90;;;;;;5057288;28;20036;-66
2022/03/29 02:38:20;;;;;;;41.33;5.32;;;1.90;99.90;;;;;;5057184;28;20032;-66
2022/03/29 02:40:46;;;;;;;40.90;4.47;;;1.90;99.90;;;;;;5056939;28;20108;-66
2022/03/29 02:43:12;;;;;;;36.00;4.28;;;1.80;99.90;;;;;;5056900;28;20083;-66
2022/03/29 02:45:38;;;;;;;34.13;3.88;;;1.70;99.90;;;;;;5056730;28;20037;-66
2022/03/29 02:48:04;;;;;;;53.20;5.78;;;1.70;99.90;;;;;;5057315;28;20035;-66
2022/03/29 02:50:30;;;;;;;48.25;3.70;;;1.70;99.90;;;;;;5056715;28;20037;-66
2022/03/29 02:52:57;;;;;;;40.40;5.47;;;1.70;99.90;;;;;;5056614;28;20025;-66
2022/03/29 02:55:29;;;;;;;31.15;5.70;;;1.70;99.90;;;;;;5056733;28;20104;-66
2022/03/29 02:57:55;;;;;;;32.38;5.38;;;1.70;99.90;;;;;;5056644;28;20024;-66
2022/03/29 03:00:21;;;;;;;42.45;5.57;;;1.70;99.90;;;;;;5056680;28;20033;-66
2022/03/29 03:02:48;;;;;;;40.13;4.70;;;1.70;99.90;;;;;;5056832;28;20078;-66
2022/03/29 03:05:14;;;;;;;25.08;3.63;;;1.70;99.90;;;;;;5056446;28;20389;-66
2022/03/29 03:07:42;;;;;;;38.63;3.60;;;1.60;99.90;;;;;;5056505;28;20037;-66
2022/03/29 03:10:08;;;;;;;30.67;4.25;;;1.70;99.90;;;;;;5056400;28;20052;-66
2022/03/29 03:12:38;;;;;;;47.58;5.88;;;1.70;99.90;;;;;;5057000;28;20108;-66
2022/03/29 03:15:06;;;;;;;49.40;6.07;;;1.70;99.90;;;;;;5056391;28;20536;-66
2022/03/29 03:17:32;;;;;;;37.25;4.00;;;1.70;99.90;;;;;;5056170;28;20503;-66
2022/03/29 03:19:57;;;;;;;45.25;4.43;;;1.80;99.90;;;;;;5056475;28;20092;-66
2022/03/29 03:22:23;;;;;;;27.83;3.70;;;1.70;99.90;;;;;;5056405;28;20033;-66
2022/03/29 03:24:49;;;;;;;31.30;4.40;;;1.70;99.90;;;;;;5056096;28;20031;-66
2022/03/29 03:27:16;;;;;;;31.10;5.20;;;1.60;99.90;;;;;;5056055;28;20021;-66
2022/03/29 03:29:42;;;;;;;37.80;4.28;;;1.60;99.90;;;;;;5056030;28;20025;-66
2022/03/29 03:32:08;;;;;;;43.17;5.20;;;1.60;99.90;;;;;;5055923;28;20116;-66
2022/03/29 03:34:34;;;;;;;28.90;4.55;;;1.60;99.90;;;;;;5056107;28;20021;-66
2022/03/29 03:37:02;;;;;;;38.25;4.95;;;1.60;99.90;;;;;;5055826;28;20017;-66
2022/03/29 03:39:29;;;;;;;42.53;3.92;;;1.60;99.90;;;;;;5056105;28;20020;-66
2022/03/29 03:41:54;;;;;;;37.20;3.47;;;1.70;99.90;;;;;;5056080;28;20021;-66
2022/03/29 03:44:20;;;;;;;37.15;4.93;;;1.60;99.90;;;;;;5056144;28;20162;-66
2022/03/29 03:46:46;;;;;;;36.85;4.68;;;1.60;99.90;;;;;;5055734;28;20472;-66
2022/03/29 03:49:11;;;;;;;31.00;4.10;;;1.50;99.90;;;;;;5055944;28;20082;-66
2022/03/29 03:51:37;;;;;;;48.50;4.63;;;1.50;99.90;;;;;;5055727;28;20483;-66
2022/03/29 03:54:03;;;;;;;38.30;4.45;;;1.50;99.90;;;;;;5055681;28;20595;-66
2022/03/29 03:56:28;;;;;;;43.00;4.95;;;1.50;99.90;;;;;;5056109;28;20566;-66
2022/03/29 03:58:54;;;;;;;35.35;3.25;;;1.50;99.90;;;;;;5055443;28;20024;-66
2022/03/29 04:01:19;;;;;;;43.60;4.40;;;1.40;99.90;;;;;;5055504;28;20025;-66
2022/03/29 04:03:45;;;;;;;48.88;4.82;;;1.50;99.90;;;;;;5055414;28;20067;-66
2022/03/29 04:06:10;;;;;;;30.02;4.40;;;1.50;99.90;;;;;;5055375;28;20052;-66
2022/03/29 04:08:36;;;;;;;45.15;4.43;;;1.50;99.90;;;;;;5055261;28;20389;-66
2022/03/29 04:11:02;;;;;;;52.13;5.57;;;1.50;99.90;;;;;;5055126;28;20025;-66
2022/03/29 04:13:28;;;;;;;49.40;4.72;;;1.60;99.90;;;;;;5055059;28;20056;-65
2022/03/29 04:15:54;;;;;;;34.50;4.55;;;1.60;99.90;;;;;;5055442;28;20049;-66
2022/03/29 04:18:19;;;;;;;30.75;4.22;;;1.60;99.90;;;;;;5055351;28;20556;-66
2022/03/29 04:20:45;;;;;;;52.53;4.78;;;1.60;99.90;;;;;;5055362;28;20457;-66
2022/03/29 04:23:10;;;;;;;32.10;4.10;;;1.60;99.90;;;;;;5055247;28;20029;-66
2022/03/29 04:25:36;;;;;;;29.95;4.10;;;1.60;99.90;;;;;;5054984;28;20029;-66
2022/03/29 04:28:02;;;;;;;30.02;3.80;;;1.60;99.90;;;;;;5055020;28;20104;-66
2022/03/29 04:30:27;;;;;;;31.38;4.50;;;1.60;99.90;;;;;;5054922;28;20028;-66
2022/03/29 04:32:56;;;;;;;43.92;5.57;;;1.60;99.90;;;;;;5054818;28;20025;-66
2022/03/29 04:35:21;;;;;;;31.92;4.35;;;1.60;99.90;;;;;;5054120;28;20021;-66
2022/03/29 04:37:47;;;;;;;55.95;5.43;;;1.60;99.90;;;;;;5055027;28;20116;-66
2022/03/29 04:40:13;;;;;;;43.20;4.05;;;1.50;99.90;;;;;;5054717;28;20044;-66
2022/03/29 04:42:43;;;;;;;30.27;3.90;;;1.40;99.90;;;;;;5054917;28;20040;-66
2022/03/29 04:45:09;;;;;;;39.72;4.88;;;1.50;99.90;;;;;;5054734;28;20400;-66
2022/03/29 04:47:35;;;;;;;29.00;4.40;;;1.50;99.90;;;;;;5054571;28;20477;-67
2022/03/29 04:50:00;;;;;;;31.70;4.35;;;1.50;99.90;;;;;;5054495;28;20033;-66
2022/03/29 04:52:26;;;;;;;35.65;4.95;;;1.40;99.90;;;;;;5054575;28;20029;-67
2022/03/29 04:54:52;;;;;;;34.08;3.95;;;1.30;99.90;;;;;;5054463;28;20053;-67
2022/03/29 04:57:18;;;;;;;46.83;5.60;;;1.30;99.90;;;;;;5054367;28;20079;-66
2022/03/29 04:59:43;;;;;;;34.63;5.30;;;1.40;99.90;;;;;;5036818;28;20017;-67
2022/03/29 05:02:09;;;;;;;27.85;4.43;;;1.40;99.90;;;;;;5054295;28;20025;-65
2022/03/29 05:04:35;;;;;;;51.42;5.07;;;1.30;99.90;;;;;;5054185;28;20476;-66
2022/03/29 05:07:00;;;;;;;38.28;4.97;;;1.30;99.90;;;;;;5054176;28;20033;-67
2022/03/29 05:09:26;;;;;;;29.83;3.72;;;1.30;99.90;;;;;;5054163;28;20020;-66
2022/03/29 05:11:52;;;;;;;45.40;5.75;;;1.40;99.90;;;;;;5053918;28;20472;-66
2022/03/29 05:14:17;;;;;;;49.58;5.88;;;1.50;99.90;;;;;;5054253;28;20079;-66
2022/03/29 05:16:43;;;;;;;22.92;4.63;;;1.40;99.90;;;;;;5054041;28;20056;-66
2022/03/29 05:19:09;;;;;;;32.80;4.60;;;1.40;99.90;;;;;;5054547;28;20040;-66
2022/03/29 05:21:34;;;;;;;37.00;4.40;;;1.40;99.90;;;;;;5054158;28;20036;-66
2022/03/29 05:24:00;;;;;;;40.40;4.85;;;1.40;99.90;;;;;;5053638;28;20025;-66
2022/03/29 05:26:26;;;;;;;39.38;4.22;;;1.40;99.90;;;;;;5054395;28;20037;-66
2022/03/29 05:28:51;;;;;;;28.70;3.53;;;1.40;99.90;;;;;;5054034;28;20070;-66
2022/03/29 05:31:17;;;;;;;45.67;5.07;;;1.40;99.90;;;;;;5053780;28;20032;-66
2022/03/29 05:33:42;;;;;;;35.35;4.65;;;1.40;99.90;;;;;;5053721;28;20100;-66
2022/03/29 05:36:08;;;;;;;32.90;4.22;;;1.40;99.90;;;;;;5053693;28;20096;-66
2022/03/29 05:38:34;;;;;;;37.25;5.07;;;1.50;99.90;;;;;;5053690;28;20534;-66
2022/03/29 05:40:59;;;;;;;20.63;3.63;;;1.40;99.90;;;;;;5053857;28;20024;-66
2022/03/29 05:43:25;;;;;;;33.83;4.93;;;1.50;99.90;;;;;;5053380;28;20473;-66
2022/03/29 05:48:52;;;;;;;34.80;3.70;;;1.60;99.90;;;;;;5053510;28;20115;-66
2022/03/29 05:51:22;;;;;;;34.58;4.93;;;1.70;99.90;;;;;;5053829;28;20029;-66
2022/03/29 05:53:48;;;;;;;28.73;4.20;;;1.80;99.90;;;;;;5053702;28;20032;-66
2022/03/29 05:56:14;;;;;;;25.08;3.70;;;1.80;99.90;;;;;;5035596;28;20028;-66
2022/03/29 05:58:39;;;;;;;33.20;4.85;;;1.90;99.90;;;;;;5053655;28;20021;-66
2022/03/29 06:01:05;;;;;;;46.42;5.03;;;2.00;99.90;;;;;;5035544;28;20496;-66
2022/03/29 06:03:30;;;;;;;29.50;4.25;;;2.20;99.90;;;;;;5053694;28;20111;-66
2022/03/29 06:05:56;;;;;;;27.67;3.33;;;2.30;99.90;;;;;;5053294;28;20025;-66
2022/03/29 06:08:21;;;;;;;35.10;4.53;;;2.40;99.90;;;;;;5053310;28;20029;-66
2022/03/29 06:10:47;;;;;;;31.35;4.32;;;2.50;99.90;;;;;;5053223;28;20028;-66
2022/03/29 06:13:14;;;;;;;34.38;4.07;;;2.60;99.90;;;;;;5053069;28;20033;-66
2022/03/29 06:15:40;;;;;;;23.60;3.30;;;2.70;99.90;;;;;;5053278;28;20048;-66
2022/03/29 06:18:06;;;;;;;29.15;4.30;;;2.80;99.90;;;;;;5053173;28;20121;-66
2022/03/29 06:20:32;;;;;;;25.92;3.97;;;2.90;99.90;;;;;;5053571;28;20025;-66
2022/03/29 06:22:57;;;;;;;33.03;3.92;;;2.90;99.90;;;;;;5053181;28;20021;-66
2022/03/29 06:25:23;;;;;;;36.05;5.10;;;3.00;99.90;;;;;;5053301;28;20033;-66
2022/03/29 06:27:49;;;;;;;27.70;3.40;;;3.00;99.90;;;;;;5053210;28;20039;-66
2022/03/29 06:30:16;;;;;;;30.77;3.58;;;3.10;99.90;;;;;;5053392;28;20024;-66
2022/03/29 06:32:50;;;;;;;28.88;3.50;;;3.20;99.90;;;;;;5052986;28;20436;-66
2022/03/29 06:35:21;;;;;;;30.83;3.70;;;3.30;99.90;;;;;;5053052;28;20469;-66
2022/03/29 06:37:51;;;;;;;41.25;4.55;;;3.40;99.90;;;;;;5053363;28;20064;-66
2022/03/29 06:40:17;;;;;;;32.92;4.63;;;3.50;99.90;;;;;;5053037;28;20392;-66
2022/03/29 06:42:43;;;;;;;47.78;5.40;;;3.60;99.90;;;;;;5053136;28;20021;-66
2022/03/29 06:45:09;;;;;;;37.63;5.22;;;3.70;99.90;;;;;;5052850;28;20060;-66
2022/03/29 06:47:36;;;;;;;36.00;4.97;;;3.90;99.90;;;;;;5052911;28;20393;-66
2022/03/29 06:50:03;;;;;;;35.08;4.63;;;3.90;99.90;;;;;;5052848;28;20465;-66
2022/03/29 06:52:34;;;;;;;41.42;4.40;;;4.00;99.90;;;;;;5053106;28;20028;-66
2022/03/29 06:54:59;;;;;;;26.63;3.55;;;4.10;99.90;;;;;;5053101;28;20033;-66
2022/03/29 06:57:25;;;;;;;40.22;4.68;;;4.20;99.90;;;;;;5053121;28;20162;-66
2022/03/29 06:59:50;;;;;;;33.95;5.90;;;4.20;99.90;;;;;;5056537;28;20599;-66
2022/03/29 07:02:16;;;;;;;32.13;4.13;;;4.30;99.90;;;;;;5056808;28;20028;-66
2022/03/29 07:04:42;;;;;;;42.45;5.20;;;4.50;99.90;;;;;;5056499;28;20380;-66
2022/03/29 07:07:08;;;;;;;30.30;3.80;;;4.70;99.90;;;;;;5056872;28;20087;-66
2022/03/29 07:12:18;;;;;;;;;;;5.00;99.90;;;;;;5056884;28;20036;-66
2022/03/29 07:14:43;;;;;;;36.35;4.35;;;5.10;99.90;;;;;;5056535;28;20007;-67
2022/03/29 07:17:13;;;;;;;39.70;5.45;;;5.20;99.90;;;;;;5056385;28;20392;-67
2022/03/29 07:19:39;;;;;;;54.30;6.03;;;5.40;99.90;;;;;;5056193;28;20020;-66
2022/03/29 07:22:05;;;;;;;34.22;4.93;;;5.50;99.90;;;;;;5057263;28;20021;-67
2022/03/29 07:24:31;;;;;;;65.07;6.88;;;5.60;99.90;;;;;;5056128;28;20531;-66
2022/03/29 07:26:57;;;;;;;30.48;4.22;;;5.90;99.90;;;;;;5056144;28;20029;-66
2022/03/29 07:29:22;;;;;;;35.60;4.72;;;6.00;99.90;;;;;;5056873;28;20029;-67
2022/03/29 07:31:48;;;;;;;39.53;5.75;;;6.10;99.90;;;;;;5055967;28;20033;-67
2022/03/29 07:34:15;;;;;;;36.30;4.72;;;6.20;99.90;;;;;;5055927;28;20057;-67
2022/03/29 07:36:41;;;;;;;37.28;3.97;;;6.20;99.90;;;;;;5055917;28;20078;-67
2022/03/29 07:39:07;;;;;;;44.78;5.38;;;6.20;99.90;;;;;;5056143;28;20029;-66
2022/03/29 07:41:33;;;;;;;31.33;4.55;;;6.10;99.90;;;;;;5055918;28;20025;-65
2022/03/29 07:43:59;;;;;;;28.65;4.38;;;6.10;99.90;;;;;;5055694;28;20051;-67
2022/03/29 07:46:24;;;;;;;28.65;4.07;;;6.10;99.90;;;;;;5056223;28;20028;-67
2022/03/29 07:48:50;;;;;;;41.53;4.65;;;6.00;99.90;;;;;;5055726;28;20028;-67
2022/03/29 07:51:17;;;;;;;28.02;3.42;;;6.10;99.90;;;;;;5055976;28;20021;-66
2022/03/29 07:53:43;;;;;;;29.17;4.72;;;6.30;99.90;;;;;;5037689;28;20051;-67
2022/03/29 07:56:09;;;;;;;34.97;4.40;;;6.20;99.90;;;;;;5055551;28;20517;-67
2022/03/29 07:58:34;;;;;;;28.90;4.15;;;6.10;99.90;;;;;;5055589;28;20079;-67
2022/03/29 08:01:00;;;;;;;31.25;3.90;;;6.10;99.90;;;;;;5055458;28;20025;-67
2022/03/29 08:03:32;;;;;;;20.40;3.72;;;6.30;99.90;;;;;;5055806;28;20112;-66
2022/03/29 08:05:58;;;;;;;23.75;4.03;;;6.50;99.90;;;;;;5055515;28;20025;-66
2022/03/29 08:08:24;;;;;;;26.00;3.47;;;6.70;99.90;;;;;;5055625;28;20017;-66
2022/03/29 08:10:50;;;;;;;26.00;5.50;;;6.80;99.90;;;;;;5054487;28;20031;-66
2022/03/29 08:13:17;;;;;;;34.53;3.63;;;6.80;99.90;;;;;;5055287;28;20056;-66
2022/03/29 08:15:45;;;;;;;26.92;4.22;;;7.00;99.90;;;;;;5055502;28;20094;-66
2022/03/29 08:18:11;;;;;;;16.48;3.72;;;7.30;99.90;;;;;;5055093;28;20377;-66
2022/03/29 08:20:38;;;;;;;21.85;4.03;;;7.40;99.90;;;;;;5055138;28;20017;-66
2022/03/29 08:23:05;;;;;;;27.27;3.35;;;7.50;99.90;;;;;;5055310;28;20032;-66
2022/03/29 08:25:33;;;;;;;29.35;4.85;;;7.60;99.90;;;;;;5054949;28;20473;-66
2022/03/29 08:27:59;;;;;;;18.23;2.85;;;7.50;99.90;;;;;;5055049;28;20433;-66
2022/03/29 08:30:26;;;;;;;37.30;5.00;;;7.50;99.90;;;;;;5055138;28;20040;-66
2022/03/29 08:32:53;;;;;;;27.05;3.60;;;7.50;99.90;;;;;;5054788;28;20053;-66
2022/03/29 08:35:19;;;;;;;25.17;4.25;;;7.50;99.90;;;;;;5036960;28;20122;-67
2022/03/29 08:37:46;;;;;;;27.40;4.63;;;7.70;99.90;;;;;;5054989;28;20446;-67
2022/03/29 08:40:16;;;;;;;23.05;3.22;;;7.90;99.90;;;;;;5054771;28;20106;-67
2022/03/29 08:42:44;;;;;;;21.38;3.47;;;8.00;99.90;;;;;;5054614;28;20027;-66
2022/03/29 08:45:11;;;;;;;20.38;3.63;;;8.20;99.90;;;;;;5054531;28;20091;-66
2022/03/29 08:47:39;;;;;;;29.88;3.53;;;8.00;99.90;;;;;;5054509;28;20028;-66
2022/03/29 08:50:06;;;;;;;27.52;4.65;;;7.80;99.90;;;;;;5054724;28;20392;-66
2022/03/29 08:52:32;;;;;;;34.85;4.20;;;7.30;99.90;;;;;;5054931;28;20025;-66
2022/03/29 08:54:58;;;;;;;24.02;3.35;;;7.20;99.90;;;;;;5054304;28;20100;-66
2022/03/29 08:57:24;;;;;;;31.23;3.88;;;7.50;99.90;;;;;;5054617;28;20435;-66
2022/03/29 08:59:50;;;;;;;29.60;3.22;;;7.60;99.90;;;;;;5054635;28;20104;-66
2022/03/29 09:02:16;;;;;;;22.88;3.22;;;7.70;99.90;;;;;;5054284;28;20147;-66
2022/03/29 09:05:02;;;;;;;26.67;2.85;;;7.70;99.90;;;;;;5054124;28;20025;-66
2022/03/29 09:07:46;;;;;;;37.92;4.32;;;7.90;99.90;;;;;;5054007;28;20044;-67
2022/03/29 09:10:12;;;;;;;26.25;4.18;;;8.20;99.90;;;;;;5054447;28;20025;-67
2022/03/29 09:12:38;;;;;;;20.58;3.78;;;8.40;99.90;;;;;;5054116;28;20075;-67
2022/03/29 09:15:04;;;;;;;23.40;4.30;;;8.40;99.90;;;;;;5036169;28;20070;-67
2022/03/29 09:17:34;;;;;;;23.58;3.88;;;8.30;99.90;;;;;;5054242;28;20032;-67
2022/03/29 09:20:03;;;;;;;30.60;3.90;;;7.80;99.90;;;;;;5053980;28;20021;-67
2022/03/29 09:22:47;;;;;;;29.27;3.40;;;7.80;99.90;;;;;;5053973;28;20025;-67
2022/03/29 09:25:14;;;;;;;23.90;4.22;;;8.20;99.90;;;;;;5053973;28;20078;-67
2022/03/29 09:27:55;;;;;;;34.35;3.22;;;8.50;99.90;;;;;;5054198;28;20100;-66
2022/03/29 09:30:22;;;;;;;43.15;3.58;;;8.70;99.90;;;;;;5054358;28;20112;-66
2022/03/29 09:32:51;;;;;;;22.15;3.22;;;8.60;99.90;;;;;;5054112;28;20024;-67
2022/03/29 09:35:17;;;;;;;23.23;3.30;;;8.70;99.90;;;;;;5053641;28;20017;-67
2022/03/29 09:37:45;;;;;;;31.02;4.20;;;9.10;99.90;;;;;;5053541;28;20100;-66
2022/03/29 09:40:12;;;;;;;21.83;3.95;;;8.90;99.90;;;;;;5053575;28;20480;-66
2022/03/29 09:42:39;;;;;;;27.23;2.53;;;8.50;99.90;;;;;;5053531;28;20025;-66
2022/03/29 09:45:05;;;;;;;20.58;4.25;;;8.50;99.90;;;;;;5053806;28;20095;-67
2022/03/29 09:47:31;;;;;;;21.70;3.38;;;8.60;99.90;;;;;;5053473;28;20027;-67
2022/03/29 09:50:09;;;;;;;21.63;3.05;;;8.70;99.90;;;;;;5053743;28;20099;-67
2022/03/29 09:52:46;;;;;;;24.38;4.18;;;8.70;99.90;;;;;;5053637;28;20163;-67
2022/03/29 09:55:13;;;;;;;22.92;2.55;;;8.80;99.90;;;;;;5054529;28;20412;-67
2022/03/29 09:57:49;;;;;;;24.33;3.22;;;8.70;99.90;;;;;;5053365;28;20032;-67
2022/03/29 10:00:19;;;;;;;27.73;3.78;;;8.70;99.90;;;;;;5053702;28;20492;-67
2022/03/29 10:02:46;;;;;;;25.85;3.40;;;8.60;99.90;;;;;;5053951;28;20044;-67
2022/03/29 10:05:15;;;;;;;23.90;3.13;;;8.50;99.90;;;;;;5053459;28;20021;-67
2022/03/29 10:07:50;;;;;;;17.90;3.60;;;8.40;99.90;;;;;;5053400;28;20024;-67
2022/03/29 10:10:16;;;;;;;26.42;3.78;;;8.60;99.90;;;;;;5053170;28;20111;-67
2022/03/29 10:12:42;;;;;;;14.63;3.45;;;8.80;99.90;;;;;;5035316;28;20048;-67
2022/03/29 10:15:08;;;;;;;20.23;3.25;;;9.00;99.90;;;;;;5053136;28;20045;-67
2022/03/29 10:17:36;;;;;;;19.52;3.55;;;9.00;99.90;;;;;;5053178;28;20021;-66
2022/03/29 10:20:06;;;;;;;26.48;4.03;;;8.80;99.90;;;;;;5053151;28;20039;-67
2022/03/29 10:22:32;;;;;;;26.15;3.47;;;8.80;99.90;;;;;;5053353;28;20052;-67
2022/03/29 10:24:57;;;;;;;23.15;3.70;;;9.20;99.90;;;;;;5053180;28;20483;-67
2022/03/29 10:27:24;;;;;;;31.73;3.20;;;9.00;99.90;;;;;;5053111;28;20040;-67
2022/03/29 10:29:49;;;;;;;26.75;3.88;;;8.80;99.90;;;;;;5053087;28;20079;-67
2022/03/29 10:32:28;;;;;;;44.63;4.38;;;8.70;99.90;;;;;;5052959;28;20025;-67
2022/03/29 10:35:10;;;;;;;25.60;3.33;;;8.50;99.90;;;;;;5057182;28;20070;-67
2022/03/29 10:37:53;;;;;;;26.33;3.20;;;8.50;99.90;;;;;;5057137;28;20025;-66
2022/03/29 10:40:54;;;;;;;21.65;3.00;;;8.50;99.90;;;;;;5057268;28;20021;-67
2022/03/29 10:43:29;;;;;;;26.63;3.90;;;8.60;99.90;;;;;;4956595;29;20039;-67
2022/03/29 10:45:57;;;;;;;20.92;2.67;;;8.70;99.90;;;;;;5042437;28;20036;-67
2022/03/29 10:48:23;;;;;;;22.88;2.67;;;8.90;99.90;;;;;;5057114;28;20021;-67
2022/03/29 10:50:53;;;;;;;15.90;3.83;;;8.90;99.90;;;;;;5057064;28;20033;-67
2022/03/29 10:53:35;;;;;;;20.10;4.05;;;8.70;99.90;;;;;;5057581;28;20029;-67
2022/03/29 10:56:13;;;;;;;16.80;3.25;;;8.70;99.90;;;;;;5057620;28;20044;-67
2022/03/29 10:59:04;;;;;;;16.02;3.13;;;8.70;99.90;;;;;;5057255;28;20079;-66
2022/03/29 11:01:35;;;;;;;21.58;2.80;;;8.70;99.90;;;;;;5056794;28;20025;-66
2022/03/29 11:04:03;;;;;;;19.23;3.00;;;8.70;99.90;;;;;;5056689;28;20032;-66
2022/03/29 11:06:29;;;;;;;14.65;3.20;;;8.60;99.90;;;;;;5056729;28;20496;-67
2022/03/29 11:09:07;;;;;;;17.45;3.03;;;8.60;99.90;;;;;;5056956;28;20033;-66
2022/03/29 11:11:47;;;;;;;19.58;3.40;;;8.80;99.90;;;;;;5056657;28;20038;-66
2022/03/29 11:14:33;;;;;;;18.27;3.50;;;9.00;99.90;;;;;;5056146;28;20481;-66
2022/03/29 11:17:11;;;;;;;19.52;2.92;;;9.40;99.90;;;;;;5056298;28;20417;-66
2022/03/29 11:19:49;;;;;;;20.77;3.15;;;9.90;99.90;;;;;;5056534;28;20024;-67
2022/03/29 11:22:34;;;;;;;17.75;3.53;;;9.90;99.90;;;;;;5056504;28;20045;-67
2022/03/29 11:25:05;;;;;;;18.08;2.88;;;9.80;99.90;;;;;;5056070;28;20501;-67
2022/03/29 11:27:34;;;;;;;17.70;2.72;;;9.90;99.90;;;;;;5056374;28;20025;-66
2022/03/29 11:30:03;;;;;;;15.98;2.30;;;10.00;99.90;;;;;;5056633;28;20473;-67
2022/03/29 11:32:30;;;;;;;17.50;2.80;;;9.90;99.90;;;;;;5055914;28;20075;-66
2022/03/29 11:34:57;;;;;;;15.57;2.20;;;9.50;99.90;;;;;;5056138;28;20017;-66
2022/03/29 11:37:33;;;;;;;11.45;2.22;;;9.30;99.90;;;;;;5056194;28;20104;-66
2022/03/29 11:40:01;;;;;;;15.95;2.60;;;9.20;99.90;;;;;;5056110;28;20052;-67
2022/03/29 11:42:45;;;;;;;19.27;2.80;;;9.30;99.90;;;;;;5055872;28;20031;-66
2022/03/29 11:45:13;;;;;;;14.25;2.78;;;9.20;99.90;;;;;;5054346;28;20068;-66
2022/03/29 11:47:39;;;;;;;11.88;2.75;;;9.10;99.90;;;;;;5055696;28;20017;-66
2022/03/29 11:50:05;;;;;;;22.75;2.92;;;8.80;99.90;;;;;;5055833;28;20025;-66
2022/03/29 11:52:35;;;;;;;25.98;3.45;;;8.90;99.90;;;;;;5055893;28;20358;-65
2022/03/29 11:55:13;;;;;;;20.88;3.40;;;8.90;99.90;;;;;;5056665;28;20040;-67
2022/03/29 11:57:39;;;;;;;24.73;3.38;;;9.10;99.90;;;;;;5055619;28;20032;-67
2022/03/29 12:00:27;;;;;;;22.58;2.53;;;9.50;99.90;;;;;;5055448;28;20382;-67
2022/03/29 12:02:54;;;;;;;17.70;2.55;;;9.80;99.90;;;;;;5055721;28;20116;-67
2022/03/29 12:05:24;;;;;;;19.08;3.10;;;9.70;99.90;;;;;;5055592;28;20033;-67
2022/03/29 12:07:56;;;;;;;17.50;3.00;;;9.40;99.90;;;;;;5055542;28;20405;-66
2022/03/29 12:10:29;;;;;;;16.45;2.42;;;9.20;99.90;;;;;;5055611;28;20032;-66
2022/03/29 12:12:55;;;;;;;20.70;3.33;;;9.00;99.90;;;;;;5055455;28;20025;-67
2022/03/29 12:15:22;;;;;;;22.55;3.08;;;9.10;99.90;;;;;;5055135;28;20052;-67
2022/03/29 12:18:40;;;;;;;22.45;2.78;;;9.30;99.90;;;;;;5055582;28;20024;-67
2022/03/29 12:20:43;;;;;;;13.85;2.38;;;9.30;99.90;;;;;;5054946;28;20115;-67
2022/03/29 12:23:15;;;;;;;21.60;2.97;;;9.20;99.90;;;;;;5055078;28;20160;-66
2022/03/29 12:25:41;;;;;;;25.30;3.13;;;9.20;99.90;;;;;;5055106;28;20473;-66
2022/03/29 12:28:07;;;;;;;30.45;3.97;;;9.00;99.90;;;;;;5055005;28;20040;-67
2022/03/29 12:30:33;;;;;;;24.20;3.20;;;8.80;99.90;;;;;;5055276;28;20028;-67
2022/03/29 12:32:58;;;;;;;22.65;4.00;;;8.70;99.90;;;;;;5036909;28;20033;-66
2022/03/29 12:35:28;;;;;;;13.95;2.65;;;8.60;99.90;;;;;;5054825;28;20025;-67
2022/03/29 12:38:05;;;;;;;13.93;3.03;;;8.70;99.90;;;;;;5055147;28;20068;-66
2022/03/29 12:40:31;;;;;;;19.13;2.42;;;8.60;99.90;;;;;;5054842;28;20021;-67
2022/03/29 12:43:04;;;;;;;27.02;3.13;;;8.40;99.90;;;;;;5054823;28;20029;-67
2022/03/29 12:45:32;;;;;;;21.33;3.22;;;8.20;99.90;;;;;;5054460;28;20033;-67
2022/03/29 12:47:58;;;;;;;21.73;4.85;;;8.10;99.90;;;;;;5054649;28;20111;-67
2022/03/29 12:50:25;;;;;;;23.25;2.75;;;8.10;99.90;;;;;;5054675;28;20477;-67
2022/03/29 12:52:51;;;;;;;36.70;4.65;;;8.10;99.90;;;;;;5054566;28;20460;-67
2022/03/29 12:55:18;;;;;;;26.75;3.50;;;7.90;99.90;;;;;;5054401;28;20028;-67
2022/03/29 12:57:48;;;;;;;22.00;2.95;;;7.90;99.90;;;;;;5054522;28;20055;-67